Time;durP1;ratioP1;P1;durP2;ratioP2;P2;SDS_P1;SDS_P2;PMS_P1;PMS_P2;Temp;Humidity;BMP_temperature;BMP_pressure;BME280_temperature;BME280_humidity;BME280_pressure;Samples;Min_cycle;Max_cycle;Signal;HPM_P1;HPM_P2
2023/05/18 00:01:30;;;;;;;24.40;5.70;;;;;;;8.49;79.06;101119.73;107897;1266;22524;-79
2023/05/18 00:04:03;;;;;;;27.80;6.20;;;;;;;8.45;79.08;101121.30;107872;1270;24301;-79
2023/05/18 00:06:33;;;;;;;25.50;5.40;;;;;;;8.42;79.19;101122.83;108875;1270;25521;-79
2023/05/18 00:09:04;;;;;;;24.90;4.90;;;;;;;8.38;79.34;101122.54;107884;1272;24192;-79
2023/05/18 00:11:38;;;;;;;27.40;6.30;;;;;;;8.35;79.27;101120.17;107807;1267;22517;-79
2023/05/18 00:14:09;;;;;;;30.10;6.90;;;;;;;8.34;79.47;101120.67;107809;1262;24369;-79
2023/05/18 00:16:39;;;;;;;25.30;5.50;;;;;;;8.33;79.55;101128.90;107759;1267;22635;-79
2023/05/18 00:19:13;;;;;;;23.30;6.50;;;;;;;8.33;79.63;101135.25;107725;1272;22527;-79
2023/05/18 00:21:45;;;;;;;28.10;5.50;;;;;;;8.33;79.56;101138.29;108065;1267;25538;-79
2023/05/18 00:24:17;;;;;;;24.30;4.60;;;;;;;8.30;79.57;101139.70;110516;1274;22963;-79
2023/05/18 00:26:49;;;;;;;24.00;5.10;;;;;;;8.30;79.54;101143.78;108386;1274;22516;-79
2023/05/18 00:29:19;;;;;;;21.90;5.30;;;;;;;8.27;79.62;101146.56;110540;1269;22143;-78
2023/05/18 00:31:50;;;;;;;17.30;5.00;;;;;;;8.27;79.70;101149.11;110567;1274;23066;-79
2023/05/18 00:34:21;;;;;;;22.00;5.90;;;;;;;8.25;79.64;101151.70;108282;1266;22524;-79
2023/05/18 00:36:52;;;;;;;18.80;4.40;;;;;;;8.21;79.44;101156.33;107839;1269;24235;-79
2023/05/18 00:39:22;;;;;;;20.90;4.90;;;;;;;8.18;79.61;101155.14;107845;1266;22636;-79
2023/05/18 00:41:53;;;;;;;21.90;4.80;;;;;;;8.15;79.70;101159.89;107835;1267;22774;-79
2023/05/18 00:44:24;;;;;;;23.40;5.00;;;;;;;8.13;79.56;101157.89;107758;1274;22844;-79
2023/05/18 00:46:55;;;;;;;16.40;3.70;;;;;;;8.09;79.53;101154.66;107819;1274;23300;-79
2023/05/18 00:49:25;;;;;;;18.50;3.60;;;;;;;8.06;79.73;101157.91;107796;1266;22650;-79
2023/05/18 00:51:57;;;;;;;18.10;4.10;;;;;;;8.04;79.82;101161.33;107809;1269;22511;-78
2023/05/18 00:54:27;;;;;;;19.60;4.10;;;;;;;8.03;79.81;101166.73;107784;1274;24828;-79
2023/05/18 00:57:00;;;;;;;17.70;3.00;;;;;;;8.02;79.79;101164.48;107861;1266;22556;-79
2023/05/18 00:59:33;;;;;;;17.10;3.50;;;;;;;8.00;79.70;101168.42;107874;1266;22538;-79
2023/05/18 01:02:05;;;;;;;17.70;3.30;;;;;;;7.99;79.74;101170.59;107842;1266;22653;-79
2023/05/18 01:04:36;;;;;;;20.00;3.80;;;;;;;7.99;79.88;101170.20;107722;1270;25204;-79
2023/05/18 01:07:07;;;;;;;19.10;3.30;;;;;;;7.97;79.55;101177.09;107742;1274;25326;-79
2023/05/18 01:09:38;;;;;;;24.30;4.10;;;;;;;7.96;79.64;101180.70;107750;1273;22566;-79
2023/05/18 01:12:18;;;;;;;16.50;2.40;;;;;;;7.93;79.51;101181.96;107762;1274;22793;-79
2023/05/18 01:14:54;;;;;;;18.50;3.10;;;;;;;7.93;79.76;101183.00;107831;1267;22483;-79
2023/05/18 01:17:35;;;;;;;15.80;2.90;;;;;;;7.93;79.68;101187.30;107817;1267;24395;-79
2023/05/18 01:20:27;;;;;;;16.50;3.40;;;;;;;7.90;79.62;101179.19;110527;1274;22233;-79
2023/05/18 01:23:41;;;;;;;16.40;2.40;;;;;;;7.91;79.89;101184.25;110495;1263;22310;-80
2023/05/18 01:26:16;;;;;;;19.90;2.60;;;;;;;7.91;79.64;101186.46;110099;1279;22256;-79
2023/05/18 01:28:48;;;;;;;12.80;2.30;;;;;;;7.91;79.55;101186.64;110122;1274;22921;-80
2023/05/18 01:31:19;;;;;;;16.20;2.80;;;;;;;7.90;79.54;101186.73;110093;1275;22294;-79
2023/05/18 01:33:50;;;;;;;25.40;2.80;;;;;;;7.91;79.49;101186.61;107956;1273;23316;-79
2023/05/18 01:36:21;;;;;;;20.20;2.30;;;;;;;7.91;79.57;101187.02;107408;1278;22645;-79
2023/05/18 01:38:52;;;;;;;15.50;2.20;;;;;;;7.90;79.53;101190.29;107408;1275;23917;-79
2023/05/18 01:41:25;;;;;;;11.40;2.00;;;;;;;7.88;79.46;101195.37;107354;1276;22524;-79
2023/05/18 01:44:06;;;;;;;13.10;2.60;;;;;;;7.88;79.64;101194.34;107329;1279;24280;-79
2023/05/18 01:46:46;;;;;;;16.20;2.60;;;;;;;7.89;79.70;101196.52;107347;1276;24819;-79
2023/05/18 01:49:21;;;;;;;19.50;2.50;;;;;;;7.90;79.82;101197.31;107392;1275;24448;-79
2023/05/18 01:51:54;;;;;;;17.20;2.60;;;;;;;7.87;79.86;101195.71;110135;1276;22211;-79
2023/05/18 01:54:26;;;;;;;13.50;2.10;;;;;;;7.85;80.10;101199.89;110104;1275;22180;-79
2023/05/18 01:56:58;;;;;;;32.90;4.10;;;;;;;7.83;80.12;101204.63;110079;1275;22230;-79
2023/05/18 01:59:30;;;;;;;15.60;2.40;;;;;;;7.83;80.26;101207.11;110106;1279;22224;-79
2023/05/18 02:02:03;;;;;;;16.60;3.20;;;;;;;7.81;80.46;101207.77;110088;1268;22639;-79
2023/05/18 02:04:34;;;;;;;17.00;2.80;;;;;;;7.79;80.48;101207.59;109706;1274;22547;-79
2023/05/18 02:07:04;;;;;;;19.30;2.80;;;;;;;7.79;80.46;101210.62;107786;1253;23467;-79
2023/05/18 02:09:35;;;;;;;24.40;3.10;;;;;;;7.79;80.57;101212.23;107816;1267;22573;-79
2023/05/18 02:12:07;;;;;;;13.20;1.90;;;;;;;7.77;80.60;101208.55;107823;1266;22476;-79
2023/05/18 02:14:39;;;;;;;16.10;2.00;;;;;;;7.75;80.52;101209.30;109099;1267;22525;-79
2023/05/18 02:17:10;;;;;;;16.10;2.50;;;;;;;7.73;80.64;101216.98;107934;1266;22523;-79
2023/05/18 02:19:41;;;;;;;14.20;2.10;;;;;;;7.71;80.68;101217.09;107771;1266;22624;-79
2023/05/18 02:22:12;;;;;;;15.30;2.80;;;;;;;7.68;80.69;101217.73;107876;1274;22483;-79
2023/05/18 02:24:45;;;;;;;11.40;2.30;;;;;;;7.65;80.75;101216.70;107919;1274;24244;-78
2023/05/18 02:27:16;;;;;;;23.20;4.10;;;;;;;7.64;80.78;101218.88;108346;1274;23763;-79
2023/05/18 02:29:46;;;;;;;18.90;2.20;;;;;;;7.63;80.87;101215.73;107926;1274;23629;-79
2023/05/18 02:32:17;;;;;;;16.10;2.30;;;;;;;7.62;80.92;101216.61;107846;1274;22737;-79
2023/05/18 02:34:51;;;;;;;13.40;1.90;;;;;;;7.62;80.79;101222.27;107861;1266;23479;-79
2023/05/18 02:37:22;;;;;;;15.80;2.10;;;;;;;7.61;80.77;101220.08;109372;1274;22639;-79
2023/05/18 02:39:53;;;;;;;14.30;2.00;;;;;;;7.61;80.75;101217.86;107821;1267;22511;-80
2023/05/18 02:42:24;;;;;;;13.40;2.30;;;;;;;7.61;80.70;101224.10;108046;1274;23946;-80
2023/05/18 02:44:55;;;;;;;18.90;2.00;;;;;;;7.62;80.71;101230.66;108110;1271;22595;-80
2023/05/18 02:47:26;;;;;;;22.50;2.30;;;;;;;7.64;80.53;101235.00;108089;1267;22641;-82
2023/05/18 02:49:56;;;;;;;15.30;1.90;;;;;;;7.63;80.57;101233.03;107944;1267;23975;-80
2023/05/18 02:52:27;;;;;;;17.50;1.80;;;;;;;7.63;80.84;101230.02;108017;1272;22636;-80
2023/05/18 02:54:58;;;;;;;15.60;2.10;;;;;;;7.60;80.78;101231.91;108108;1266;25421;-81
2023/05/18 02:57:30;;;;;;;13.90;2.20;;;;;;;7.59;80.96;101233.70;108065;1272;22521;-81
2023/05/18 03:00:08;;;;;;;12.50;3.20;;;;;;;7.57;81.06;101238.17;108586;1272;22531;-81
2023/05/18 03:02:43;;;;;;;15.60;2.00;;;;;;;7.55;80.99;101234.73;108618;1267;24285;-81
2023/05/18 03:05:15;;;;;;;12.80;1.70;;;;;;;7.53;80.86;101238.11;110569;1271;22899;-81
2023/05/18 03:07:49;;;;;;;14.70;1.80;;;;;;;7.51;80.98;101241.73;110550;1272;22390;-81
2023/05/18 03:10:21;;;;;;;16.20;1.90;;;;;;;7.51;80.89;101247.55;110559;1269;22199;-81
2023/05/18 03:12:51;;;;;;;14.00;2.20;;;;;;;7.50;81.03;101248.59;110297;1269;22604;-81
2023/05/18 03:15:22;;;;;;;15.00;2.90;;;;;;;7.49;80.85;101244.89;108683;1268;22484;-82
2023/05/18 03:17:53;;;;;;;14.50;1.90;;;;;;;7.50;80.99;101245.09;108560;1271;22479;-81
2023/05/18 03:20:24;;;;;;;13.00;2.10;;;;;;;7.51;80.89;101248.81;108455;1272;25442;-81
2023/05/18 03:22:54;;;;;;;15.90;2.70;;;;;;;7.51;80.85;101249.51;108505;1274;22639;-81
2023/05/18 03:25:25;;;;;;;15.50;2.10;;;;;;;7.51;80.75;101247.40;108469;1271;22501;-81
2023/05/18 03:27:57;;;;;;;16.10;1.80;;;;;;;7.51;80.90;101246.50;108096;1272;22572;-81
2023/05/18 03:30:27;;;;;;;13.30;1.50;;;;;;;7.52;80.87;101247.11;108534;1268;22598;-80
2023/05/18 03:32:59;;;;;;;18.90;1.90;;;;;;;7.52;80.86;101247.11;108616;1274;25281;-80
2023/05/18 03:35:30;;;;;;;10.90;1.40;;;;;;;7.50;80.97;101250.02;108611;1274;23219;-81
2023/05/18 03:38:00;;;;;;;18.60;1.80;;;;;;;7.47;81.12;101250.88;108444;1269;22575;-80
2023/05/18 03:40:31;;;;;;;13.70;2.50;;;;;;;7.45;80.96;101258.00;108559;1253;23022;-81
2023/05/18 03:43:02;;;;;;;16.40;1.90;;;;;;;7.44;81.17;101257.71;108590;1272;22591;-80
2023/05/18 03:45:33;;;;;;;13.20;1.40;;;;;;;7.45;81.21;101257.51;108862;1269;22529;-80
2023/05/18 03:48:04;;;;;;;16.30;1.40;;;;;;;7.46;81.14;101260.04;109194;1274;22563;-81
2023/05/18 03:50:35;;;;;;;11.00;1.50;;;;;;;7.48;81.25;101261.27;108787;1267;22624;-81
2023/05/18 03:53:06;;;;;;;12.30;1.60;;;;;;;7.50;81.22;101259.95;108436;1271;22476;-81
2023/05/18 03:55:36;;;;;;;14.30;1.60;;;;;;;7.50;80.93;101261.14;108681;1263;22617;-81
2023/05/18 03:58:07;;;;;;;14.90;1.80;;;;;;;7.49;81.19;101261.55;108562;1275;25416;-81
2023/05/18 04:00:38;;;;;;;15.70;2.30;;;;;;;7.52;81.18;101266.72;108572;1272;22529;-81
2023/05/18 04:03:11;;;;;;;11.30;2.10;;;;;;;7.55;81.01;101266.73;108683;1271;22589;-81
2023/05/18 04:05:43;;;;;;;11.00;1.10;;;;;;;7.54;80.99;101271.29;108603;1267;24186;-81
2023/05/18 04:08:14;;;;;;;14.80;1.50;;;;;;;7.52;80.79;101272.27;108582;1272;22566;-82
2023/05/18 04:10:45;;;;;;;9.50;1.30;;;;;;;7.51;80.82;101274.60;108712;1271;22532;-82
2023/05/18 04:13:16;;;;;;;12.60;1.40;;;;;;;7.50;80.83;101279.33;108562;1275;25380;-80
2023/05/18 04:15:47;;;;;;;12.60;1.30;;;;;;;7.50;80.82;101282.82;108548;1267;22517;-80
2023/05/18 04:18:18;;;;;;;10.90;1.40;;;;;;;7.49;80.77;101284.16;108516;1266;22530;-81
2023/05/18 04:20:49;;;;;;;14.00;1.70;;;;;;;7.49;80.74;101289.51;108667;1273;25240;-80
2023/05/18 04:23:20;;;;;;;11.50;1.40;;;;;;;7.49;80.67;101294.02;108637;1267;22635;-80
2023/05/18 04:25:50;;;;;;;13.90;1.70;;;;;;;7.48;80.66;101296.11;108613;1271;22717;-79
2023/05/18 04:28:21;;;;;;;9.10;1.80;;;;;;;7.47;80.59;101292.96;108550;1263;22636;-79
2023/05/18 04:30:53;;;;;;;17.70;1.80;;;;;;;7.49;80.72;101289.57;108485;1269;22541;-79
2023/05/18 04:33:24;;;;;;;11.60;1.20;;;;;;;7.51;80.61;101297.86;108580;1270;22557;-79
2023/05/18 04:35:55;;;;;;;12.40;1.20;;;;;;;7.48;80.45;101295.94;108679;1272;22536;-79
2023/05/18 04:38:25;;;;;;;13.00;1.50;;;;;;;7.48;80.61;101294.36;108593;1269;22505;-80
2023/05/18 04:40:59;;;;;;;13.60;2.30;;;;;;;7.49;80.42;101299.50;108517;1275;22587;-80
2023/05/18 04:43:29;;;;;;;11.20;1.40;;;;;;;7.50;80.47;101297.51;108520;1272;22599;-80
2023/05/18 04:46:00;;;;;;;15.80;1.90;;;;;;;7.53;80.54;101302.11;108614;1274;22629;-79
2023/05/18 04:48:32;;;;;;;13.00;2.10;;;;;;;7.57;80.45;101299.88;108546;1274;22533;-79
2023/05/18 04:51:04;;;;;;;13.60;2.20;;;;;;;7.58;80.23;101301.02;108055;1272;24173;-79
2023/05/18 04:53:37;;;;;;;8.50;1.10;;;;;;;7.60;80.06;101298.61;110527;1273;22839;-79
2023/05/18 04:56:12;;;;;;;12.90;1.70;;;;;;;7.59;80.04;101301.81;109743;1267;22518;-80
2023/05/18 04:58:46;;;;;;;11.70;1.20;;;;;;;7.59;80.14;101301.56;108202;1267;24300;-79
2023/05/18 05:01:18;;;;;;;11.80;1.60;;;;;;;7.64;80.36;101300.91;110505;1272;23054;-80
2023/05/18 05:03:49;;;;;;;14.30;1.50;;;;;;;7.67;80.05;101301.99;109442;1267;22593;-79
2023/05/18 05:06:20;;;;;;;16.90;1.40;;;;;;;7.71;80.04;101306.45;108058;1267;22529;-80
2023/05/18 05:08:51;;;;;;;8.50;1.90;;;;;;;7.75;80.08;101305.86;108052;1251;22515;-79
2023/05/18 05:11:21;;;;;;;7.30;1.40;;;;;;;7.78;79.92;101310.08;108169;1267;22553;-79
2023/05/18 05:13:52;;;;;;;15.30;1.60;;;;;;;7.81;80.08;101310.70;108165;1267;25450;-80
2023/05/18 05:16:23;;;;;;;11.30;1.40;;;;;;;7.85;80.28;101316.58;108124;1270;23736;-79
2023/05/18 05:18:54;;;;;;;11.40;1.50;;;;;;;7.91;80.19;101316.36;108534;1272;22673;-79
2023/05/18 05:21:24;;;;;;;16.40;1.60;;;;;;;7.96;79.92;101315.84;108151;1273;24419;-80
2023/05/18 05:23:56;;;;;;;15.50;1.90;;;;;;;7.97;79.43;101316.83;108199;1274;22569;-79
2023/05/18 05:26:27;;;;;;;10.40;1.60;;;;;;;8.01;79.52;101316.09;108635;1261;22558;-79
2023/05/18 05:28:58;;;;;;;12.10;1.80;;;;;;;8.07;79.14;101319.69;108452;1270;22525;-79
2023/05/18 05:31:29;;;;;;;11.30;1.50;;;;;;;8.13;79.38;101319.86;107965;1267;22521;-78
2023/05/18 05:34:00;;;;;;;12.40;1.60;;;;;;;8.19;78.93;101319.23;107923;1267;22529;-78
2023/05/18 05:36:32;;;;;;;14.10;1.10;;;;;;;8.23;78.44;101324.19;107880;1267;22540;-78
2023/05/18 05:39:03;;;;;;;10.80;1.30;;;;;;;8.26;77.97;101325.09;107966;1266;22514;-79
2023/05/18 05:41:34;;;;;;;13.80;1.40;;;;;;;8.31;78.16;101323.61;107950;1267;22708;-78
2023/05/18 05:44:05;;;;;;;12.30;1.10;;;;;;;8.35;77.91;101321.92;107860;1267;25546;-78
2023/05/18 05:46:36;;;;;;;12.70;1.20;;;;;;;8.37;77.56;101324.64;107875;1267;22519;-78
2023/05/18 05:49:07;;;;;;;11.50;1.70;;;;;;;8.41;77.71;101327.65;107879;1271;23910;-78
2023/05/18 05:51:37;;;;;;;14.20;1.50;;;;;;;8.43;77.27;101329.17;107968;1270;22569;-79
2023/05/18 05:54:08;;;;;;;11.40;1.20;;;;;;;8.46;77.70;101329.34;107933;1263;25517;-78
2023/05/18 05:56:39;;;;;;;9.30;1.60;;;;;;;8.52;77.64;101331.39;107790;1267;24607;-78
2023/05/18 05:59:10;;;;;;;8.90;1.70;;;;;;;8.58;77.38;101332.58;107867;1267;22575;-79
2023/05/18 06:01:40;;;;;;;10.70;1.20;;;;;;;8.63;77.01;101339.37;108001;1267;25443;-80
2023/05/18 06:04:11;;;;;;;14.80;1.10;;;;;;;8.67;76.51;101337.13;107955;1266;22534;-79
2023/05/18 06:06:43;;;;;;;13.90;1.00;;;;;;;8.70;76.56;101337.81;107926;1267;22534;-79
2023/05/18 06:09:13;;;;;;;9.80;1.10;;;;;;;8.75;76.14;101334.64;107973;1273;22536;-79
2023/05/18 06:11:44;;;;;;;9.10;1.20;;;;;;;8.79;75.71;101336.52;107994;1267;23989;-77
2023/05/18 06:14:15;;;;;;;11.90;1.60;;;;;;;8.84;76.05;101329.89;108328;1270;24327;-78
2023/05/18 06:16:45;;;;;;;12.60;1.10;;;;;;;8.90;76.33;101338.59;107933;1274;24225;-80
2023/05/18 06:19:16;;;;;;;11.30;1.10;;;;;;;8.99;75.79;101335.90;108042;1265;22545;-80
2023/05/18 06:21:47;;;;;;;10.20;0.90;;;;;;;9.07;75.52;101337.90;107781;1256;22628;-79
2023/05/18 06:24:18;;;;;;;8.30;0.80;;;;;;;9.16;75.17;101338.02;107886;1274;22518;-79
2023/05/18 06:26:49;;;;;;;9.80;1.00;;;;;;;9.25;74.79;101339.19;107830;1267;24183;-79
2023/05/18 06:29:21;;;;;;;8.20;0.80;;;;;;;9.31;73.48;101338.77;107974;1270;22526;-79
2023/05/18 06:31:52;;;;;;;19.60;1.40;;;;;;;9.35;73.75;101337.98;107896;1274;22508;-79
2023/05/18 06:34:23;;;;;;;9.90;1.00;;;;;;;9.45;73.94;101344.94;107893;1273;25869;-79
2023/05/18 06:36:54;;;;;;;10.30;0.90;;;;;;;9.53;73.77;101345.08;107752;1274;23924;-79
2023/05/18 06:39:25;;;;;;;7.80;0.80;;;;;;;9.59;73.77;101344.10;107797;1274;22540;-79
2023/05/18 06:41:55;;;;;;;7.10;0.80;;;;;;;9.65;73.56;101348.70;107735;1272;22543;-79
2023/05/18 06:44:26;;;;;;;5.70;0.70;;;;;;;9.70;73.12;101353.22;107756;1272;25332;-79
2023/05/18 06:46:57;;;;;;;15.40;1.20;;;;;;;9.73;72.40;101349.80;107737;1274;22480;-79
2023/05/18 06:49:28;;;;;;;11.90;2.00;;;;;;;9.74;72.57;101347.77;107718;1274;22695;-79
2023/05/18 06:51:58;;;;;;;12.40;1.20;;;;;;;9.77;72.08;101352.93;107775;1267;22669;-79
2023/05/18 06:54:30;;;;;;;7.70;1.10;;;;;;;9.77;71.90;101349.98;107834;1274;23042;-78
2023/05/18 06:57:00;;;;;;;18.80;1.30;;;;;;;9.77;71.63;101348.69;107862;1271;23236;-79
2023/05/18 06:59:31;;;;;;;10.10;0.80;;;;;;;9.79;71.56;101348.24;107728;1266;23319;-79
2023/05/18 07:02:02;;;;;;;8.80;0.90;;;;;;;9.81;71.56;101346.52;107794;1272;23933;-79
2023/05/18 07:04:33;;;;;;;9.60;0.80;;;;;;;9.86;71.71;101347.54;107954;1274;22508;-81
2023/05/18 07:07:04;;;;;;;5.90;0.70;;;;;;;9.92;71.37;101354.38;108377;1273;26590;-80
2023/05/18 07:09:35;;;;;;;10.60;1.40;;;;;;;9.95;70.60;101359.13;108570;1266;22535;-80
2023/05/18 07:12:07;;;;;;;10.50;0.90;;;;;;;9.97;70.60;101354.61;108423;1273;24208;-80
2023/05/18 07:14:38;;;;;;;5.40;0.60;;;;;;;10.01;70.27;101353.14;108522;1267;25949;-80
2023/05/18 07:17:09;;;;;;;10.10;1.80;;;;;;;10.08;70.83;101353.05;108487;1272;22465;-80
2023/05/18 07:19:40;;;;;;;16.90;1.20;;;;;;;10.11;69.91;101355.66;108443;1272;22547;-80
2023/05/18 07:22:11;;;;;;;5.70;0.60;;;;;;;10.16;69.86;101353.92;108558;1269;22608;-80
2023/05/18 07:24:42;;;;;;;10.90;0.80;;;;;;;10.21;70.33;101351.44;108123;1273;24278;-80
2023/05/18 07:27:12;;;;;;;9.80;1.00;;;;;;;10.29;70.06;101354.34;108049;1268;23041;-80
2023/05/18 07:29:43;;;;;;;14.20;1.30;;;;;;;10.36;69.22;101354.75;107984;1267;22462;-80
2023/05/18 07:32:15;;;;;;;12.30;0.80;;;;;;;10.37;68.38;101351.92;108012;1274;22995;-80
2023/05/18 07:34:45;;;;;;;6.30;0.80;;;;;;;10.41;69.13;101351.60;108083;1272;22827;-80
2023/05/18 07:37:16;;;;;;;8.90;0.80;;;;;;;10.48;68.46;101353.46;108095;1274;22619;-79
2023/05/18 07:39:47;;;;;;;10.40;1.10;;;;;;;10.51;68.74;101355.32;108540;1272;22908;-80
2023/05/18 07:42:18;;;;;;;9.90;0.80;;;;;;;10.60;68.70;101352.81;108844;1272;22530;-80
2023/05/18 07:44:48;;;;;;;13.90;0.90;;;;;;;10.64;68.20;101353.13;108910;1267;22489;-80
2023/05/18 07:47:20;;;;;;;10.30;1.00;;;;;;;10.70;68.17;101357.53;108191;1274;22652;-80
2023/05/18 07:49:51;;;;;;;8.10;1.10;;;;;;;10.77;68.02;101356.27;108119;1273;24939;-79
2023/05/18 07:52:22;;;;;;;9.00;0.70;;;;;;;10.83;67.86;101357.26;108100;1274;25511;-80
2023/05/18 07:54:52;;;;;;;9.00;1.00;;;;;;;10.89;67.91;101352.95;108068;1273;22536;-80
2023/05/18 07:57:24;;;;;;;13.00;1.20;;;;;;;10.99;68.24;101354.42;108081;1273;23731;-80
2023/05/18 07:59:55;;;;;;;10.20;0.80;;;;;;;11.07;67.53;101352.93;108033;1264;22540;-80
2023/05/18 08:02:25;;;;;;;7.10;0.70;;;;;;;11.12;67.30;101353.67;108116;1274;22535;-80
2023/05/18 08:04:56;;;;;;;9.10;1.30;;;;;;;11.19;66.62;101355.49;108107;1275;22993;-80
2023/05/18 08:07:28;;;;;;;9.80;1.00;;;;;;;11.22;65.72;101358.12;108105;1275;25559;-79
2023/05/18 08:09:59;;;;;;;8.20;0.70;;;;;;;11.22;65.71;101358.17;108538;1272;22573;-80
2023/05/18 08:12:30;;;;;;;9.00;0.70;;;;;;;11.27;65.86;101353.19;108575;1263;22518;-80
2023/05/18 08:15:01;;;;;;;8.10;0.70;;;;;;;11.33;65.07;101354.95;108630;1272;22485;-80
2023/05/18 08:17:32;;;;;;;8.30;0.70;;;;;;;11.37;64.99;101358.39;108540;1267;22754;-80
2023/05/18 08:20:03;;;;;;;7.60;0.80;;;;;;;11.42;63.69;101354.95;108489;1275;22553;-80
2023/05/18 08:22:34;;;;;;;13.10;1.10;;;;;;;11.42;63.59;101352.71;108478;1272;22560;-80
2023/05/18 08:25:06;;;;;;;6.50;0.70;;;;;;;11.40;63.00;101357.58;108129;1274;24235;-80
2023/05/18 08:27:36;;;;;;;12.20;0.90;;;;;;;11.39;62.59;101353.04;108112;1274;22527;-80
2023/05/18 08:30:10;;;;;;;5.60;0.90;;;;;;;11.41;63.50;101348.09;108102;1273;22625;-80
2023/05/18 08:32:40;;;;;;;6.90;1.00;;;;;;;11.51;63.51;101347.09;110514;1267;22356;-80
2023/05/18 08:35:12;;;;;;;7.80;0.60;;;;;;;11.61;63.94;101344.43;110581;1274;22180;-81
2023/05/18 08:37:43;;;;;;;8.50;0.90;;;;;;;11.71;62.09;101348.63;110542;1271;22155;-80
2023/05/18 08:40:14;;;;;;;14.60;1.30;;;;;;;11.74;61.39;101348.84;109523;1266;22524;-80
2023/05/18 08:42:52;;;;;;;5.00;0.80;;;;;;;11.78;62.55;101343.48;108364;1273;24818;-80
2023/05/18 08:45:30;;;;;;;11.80;1.00;;;;;;;11.85;62.10;101342.44;108067;1273;22665;-80
2023/05/18 08:48:03;;;;;;;6.80;0.90;;;;;;;11.88;60.76;101345.60;109412;1273;22524;-80
2023/05/18 08:50:35;;;;;;;10.90;1.00;;;;;;;11.85;61.52;101350.06;108108;1267;22523;-79
2023/05/18 08:53:10;;;;;;;5.60;0.70;;;;;;;11.86;60.91;101350.90;108053;1274;23189;-80
2023/05/18 08:55:46;;;;;;;8.40;1.10;;;;;;;11.84;59.85;101346.02;108615;1269;23284;-82
2023/05/18 08:58:20;;;;;;;9.90;1.00;;;;;;;11.84;60.56;101348.66;108560;1273;22526;-82
2023/05/18 09:00:53;;;;;;;12.90;1.10;;;;;;;11.91;61.26;101345.79;108653;1274;22534;-82
2023/05/18 09:03:26;;;;;;;8.80;1.10;;;;;;;11.99;60.69;101347.34;108546;1274;22541;-80
2023/05/18 09:05:58;;;;;;;9.00;1.00;;;;;;;12.06;60.77;101344.16;108532;1273;23012;-80
2023/05/18 09:08:31;;;;;;;7.30;0.80;;;;;;;12.15;61.52;101344.48;108538;1271;23012;-79
2023/05/18 09:11:03;;;;;;;7.40;1.00;;;;;;;12.21;61.47;101342.11;110576;1274;22925;-81
2023/05/18 09:13:34;;;;;;;17.80;1.00;;;;;;;12.29;61.03;101342.03;110576;1272;22954;-83
2023/05/18 09:16:06;;;;;;;13.00;1.10;;;;;;;12.35;60.94;101337.59;110555;1274;23048;-82
2023/05/18 09:18:37;;;;;;;13.50;0.90;;;;;;;12.45;60.73;101338.67;110565;1274;22180;-83
2023/05/18 09:21:08;;;;;;;10.40;0.70;;;;;;;12.48;60.72;101342.20;110530;1271;22173;-82
2023/05/18 09:23:45;;;;;;;7.80;0.70;;;;;;;12.56;60.77;101342.20;110148;1267;24186;-82
2023/05/18 09:26:16;;;;;;;7.90;0.60;;;;;;;12.66;60.63;101345.20;108659;1275;22927;-83
2023/05/18 09:28:51;;;;;;;5.30;0.60;;;;;;;12.75;60.71;101346.29;108753;1260;23343;-84
2023/05/18 09:31:25;;;;;;;6.40;0.80;;;;;;;12.82;60.32;101342.70;108568;1266;22745;-83
2023/05/18 09:33:58;;;;;;;7.50;0.80;;;;;;;12.87;59.92;101342.48;108546;1273;22515;-82
2023/05/18 09:36:33;;;;;;;7.70;0.80;;;;;;;12.87;59.18;101338.45;109151;1274;22540;-84
2023/05/18 09:39:10;;;;;;;9.20;0.90;;;;;;;12.86;59.09;101333.63;109339;1273;22518;-86
2023/05/18 09:41:41;;;;;;;11.40;0.80;;;;;;;12.92;59.36;101333.23;109538;1274;23734;-85
2023/05/18 09:44:13;;;;;;;6.60;0.60;;;;;;;12.96;59.42;101330.23;109200;1267;22741;-85
2023/05/18 09:46:44;;;;;;;6.90;0.70;;;;;;;13.00;59.10;101327.73;109362;1275;22539;-82
2023/05/18 09:49:22;;;;;;;6.00;0.70;;;;;;;13.09;59.66;101325.04;108620;1260;24239;-82
2023/05/18 09:51:53;;;;;;;6.00;0.50;;;;;;;13.19;57.97;101334.27;108628;1266;22687;-83
2023/05/18 09:54:25;;;;;;;7.40;0.60;;;;;;;13.22;57.62;101328.49;108592;1267;22466;-84
2023/05/18 09:56:58;;;;;;;14.60;1.30;;;;;;;13.28;57.19;101327.17;108870;1274;22621;-85
2023/05/18 09:59:32;;;;;;;6.60;0.60;;;;;;;13.33;56.93;101323.92;109086;1264;22578;-83
2023/05/18 10:02:07;;;;;;;7.20;0.70;;;;;;;13.38;57.25;101318.27;109211;1275;24008;-84
2023/05/18 10:04:41;;;;;;;4.90;0.40;;;;;;;13.46;57.42;101322.88;108991;1274;22567;-86
2023/05/18 10:07:13;;;;;;;6.80;0.70;;;;;;;13.52;57.46;101323.28;108920;1268;22526;-84
2023/05/18 10:09:47;;;;;;;5.40;0.60;;;;;;;13.57;56.08;101321.52;108828;1274;24206;-83
2023/05/18 10:12:18;;;;;;;7.90;0.70;;;;;;;13.57;55.89;101324.67;108725;1263;22602;-83
2023/05/18 10:14:50;;;;;;;4.00;0.50;;;;;;;13.54;54.79;101325.06;108737;1275;22636;-83
2023/05/18 10:17:26;;;;;;;8.60;0.50;;;;;;;13.49;55.32;101324.08;108639;1267;22542;-82
2023/05/18 10:20:01;;;;;;;5.40;0.80;;;;;;;13.52;55.44;101318.59;108425;1275;23357;-82
2023/05/18 10:22:34;;;;;;;5.90;1.20;;;;;;;13.51;55.15;101316.38;108522;1274;22515;-82
2023/05/18 10:25:09;;;;;;;7.20;0.50;;;;;;;13.53;55.51;101322.04;108691;1267;23157;-82
2023/05/18 10:27:43;;;;;;;8.40;0.50;;;;;;;13.57;55.32;101320.84;110580;1267;22204;-83
2023/05/18 10:30:16;;;;;;;3.60;0.50;;;;;;;13.58;55.05;101320.83;110531;1267;22313;-81
2023/05/18 10:32:48;;;;;;;7.80;0.60;;;;;;;13.59;54.61;101317.02;110562;1275;23183;-81
2023/05/18 10:35:22;;;;;;;6.70;0.50;;;;;;;13.60;54.60;101312.19;109321;1274;24266;-81
2023/05/18 10:37:57;;;;;;;5.00;0.50;;;;;;;13.65;54.57;101313.39;108220;1274;22750;-80
2023/05/18 10:40:28;;;;;;;4.20;0.40;;;;;;;13.70;54.05;101313.21;109874;1270;26599;-79
2023/05/18 10:43:01;;;;;;;5.10;0.40;;;;;;;13.70;53.63;101319.13;108128;1270;25332;-79
2023/05/18 10:45:35;;;;;;;4.10;0.50;;;;;;;13.66;53.62;101307.55;108016;1267;22526;-79
2023/05/18 10:48:09;;;;;;;3.80;0.50;;;;;;;13.65;54.23;101307.37;107980;1272;25417;-79
2023/05/18 10:50:42;;;;;;;6.30;0.50;;;;;;;13.68;53.49;101308.73;108051;1267;25430;-79
2023/05/18 10:53:16;;;;;;;5.50;0.50;;;;;;;13.66;53.20;101309.80;108541;1274;23370;-79
2023/05/18 10:55:48;;;;;;;4.80;0.50;;;;;;;13.64;53.43;101307.31;108495;1270;22713;-80
2023/05/18 10:58:21;;;;;;;12.60;0.70;;;;;;;13.66;53.10;101302.15;108158;1267;22532;-79
2023/05/18 11:00:56;;;;;;;5.80;0.50;;;;;;;13.72;53.60;101303.87;108044;1274;22590;-80
2023/05/18 11:03:28;;;;;;;2.10;0.40;;;;;;;13.78;52.89;101307.59;108109;1274;24241;-79
2023/05/18 11:06:09;;;;;;;5.80;0.50;;;;;;;13.80;53.17;101305.48;107951;1273;25552;-79
2023/05/18 11:08:50;;;;;;;5.70;0.50;;;;;;;13.85;52.89;101312.98;108039;1274;24151;-79
2023/05/18 11:11:23;;;;;;;;;;;;;;;13.88;52.70;101308.24;108094;1274;24256;-79
2023/05/18 11:13:54;;;;;;;3.00;0.50;;;;;;;13.87;52.03;101306.14;108156;1274;22966;-79
2023/05/18 11:16:36;;;;;;;6.90;0.30;;;;;;;13.87;52.70;101299.55;108100;1267;25424;-79
2023/05/18 11:19:10;;;;;;;3.50;0.40;;;;;;;13.92;52.70;101303.89;108086;1267;24237;-79
2023/05/18 11:21:54;;;;;;;3.90;0.30;;;;;;;13.96;52.27;101305.98;110127;1270;22571;-79
2023/05/18 11:24:29;;;;;;;3.50;0.40;;;;;;;13.97;51.62;101301.70;108092;1270;24356;-79
2023/05/18 11:27:03;;;;;;;3.50;0.40;;;;;;;13.93;52.06;101298.05;108158;1270;25423;-79
2023/05/18 11:29:36;;;;;;;3.90;0.40;;;;;;;13.99;52.63;101301.50;110532;1267;22338;-80
2023/05/18 11:32:27;;;;;;;3.00;0.30;;;;;;;14.05;51.75;101295.91;110598;1266;22180;-78
2023/05/18 11:34:58;;;;;;;4.70;0.40;;;;;;;14.06;51.72;101297.56;108410;1274;25424;-79
2023/05/18 11:37:52;;;;;;;3.10;0.40;;;;;;;14.07;51.61;101300.45;108164;1274;22468;-79
2023/05/18 11:40:47;;;;;;;3.40;0.50;;;;;;;14.08;51.55;101302.48;108035;1280;22553;-79